sensor_id;sensor_type;location;lat;lon;timestamp;pressure;altitude;pressure_sealevel;temperature;humidity
27294;BME280;14785;52.556;13.430;2023-04-09T00:01:48;101853.19;;;11.98;100.00
27294;BME280;14785;52.556;13.430;2023-04-09T00:04:14;101856.31;;;11.64;100.00
27294;BME280;14785;52.556;13.430;2023-04-09T00:06:39;101848.91;;;11.67;100.00
27294;BME280;14785;52.556;13.430;2023-04-09T00:09:05;101857.31;;;11.63;100.00
27294;BME280;14785;52.556;13.430;2023-04-09T00:11:30;101854.72;;;11.61;100.00
27294;BME280;14785;52.556;13.430;2023-04-09T00:13:58;101851.63;;;11.56;100.00
27294;BME280;14785;52.556;13.430;2023-04-09T00:16:24;101854.22;;;11.67;100.00
27294;BME280;14785;52.556;13.430;2023-04-09T00:18:49;101845.78;;;11.62;100.00
27294;BME280;14785;52.556;13.430;2023-04-09T00:21:15;101843.97;;;11.63;100.00
27294;BME280;14785;52.556;13.430;2023-04-09T00:23:41;101846.78;;;11.71;100.00
27294;BME280;14785;52.556;13.430;2023-04-09T00:26:08;101845.56;;;11.75;100.00
27294;BME280;14785;52.556;13.430;2023-04-09T00:28:34;101844.13;;;11.71;100.00
27294;BME280;14785;52.556;13.430;2023-04-09T00:31:00;101846.66;;;11.21;100.00
27294;BME280;14785;52.556;13.430;2023-04-09T00:33:26;101842.00;;;10.93;100.00
27294;BME280;14785;52.556;13.430;2023-04-09T00:35:51;101827.19;;;11.00;100.00
27294;BME280;14785;52.556;13.430;2023-04-09T00:38:17;101835.22;;;10.48;100.00
27294;BME280;14785;52.556;13.430;2023-04-09T00:40:42;101831.53;;;9.75;100.00
27294;BME280;14785;52.556;13.430;2023-04-09T00:43:08;101843.06;;;10.18;100.00
27294;BME280;14785;52.556;13.430;2023-04-09T00:45:34;101835.56;;;10.23;100.00
27294;BME280;14785;52.556;13.430;2023-04-09T00:48:00;101832.53;;;10.59;100.00
27294;BME280;14785;52.556;13.430;2023-04-09T00:50:25;101832.00;;;10.65;100.00
27294;BME280;14785;52.556;13.430;2023-04-09T00:52:51;101830.78;;;10.69;100.00
27294;BME280;14785;52.556;13.430;2023-04-09T00:55:17;101837.47;;;10.84;100.00
27294;BME280;14785;52.556;13.430;2023-04-09T00:57:42;101832.28;;;10.62;100.00
27294;BME280;14785;52.556;13.430;2023-04-09T01:00:08;101834.81;;;10.84;100.00
27294;BME280;14785;52.556;13.430;2023-04-09T01:02:35;101837.84;;;11.00;100.00
27294;BME280;14785;52.556;13.430;2023-04-09T01:05:01;101829.16;;;10.98;100.00
27294;BME280;14785;52.556;13.430;2023-04-09T01:15:33;101828.06;;;10.06;100.00
27294;BME280;14785;52.556;13.430;2023-04-09T01:18:11;101837.81;;;9.63;100.00
27294;BME280;14785;52.556;13.430;2023-04-09T01:20:47;101837.56;;;9.77;100.00
27294;BME280;14785;52.556;13.430;2023-04-09T01:26:10;101842.16;;;9.75;100.00
27294;BME280;14785;52.556;13.430;2023-04-09T01:28:44;101837.06;;;9.17;100.00
27294;BME280;14785;52.556;13.430;2023-04-09T01:31:13;101836.09;;;9.84;100.00
27294;BME280;14785;52.556;13.430;2023-04-09T01:33:43;101842.56;;;10.24;100.00
27294;BME280;14785;52.556;13.430;2023-04-09T01:36:09;101836.91;;;9.96;100.00
27294;BME280;14785;52.556;13.430;2023-04-09T01:38:36;101839.94;;;10.13;100.00
27294;BME280;14785;52.556;13.430;2023-04-09T01:41:05;101845.19;;;10.35;100.00
27294;BME280;14785;52.556;13.430;2023-04-09T01:43:32;101840.44;;;9.85;100.00
27294;BME280;14785;52.556;13.430;2023-04-09T01:45:59;101848.03;;;10.01;100.00
27294;BME280;14785;52.556;13.430;2023-04-09T01:48:26;101841.31;;;10.39;100.00
27294;BME280;14785;52.556;13.430;2023-04-09T01:50:53;101838.22;;;10.55;100.00
27294;BME280;14785;52.556;13.430;2023-04-09T01:53:18;101840.63;;;10.26;100.00
27294;BME280;14785;52.556;13.430;2023-04-09T01:55:45;101848.44;;;10.07;100.00
27294;BME280;14785;52.556;13.430;2023-04-09T01:58:10;101852.03;;;10.17;100.00
27294;BME280;14785;52.556;13.430;2023-04-09T02:00:46;101849.00;;;10.22;100.00
27294;BME280;14785;52.556;13.430;2023-04-09T02:03:17;101845.63;;;9.98;100.00
27294;BME280;14785;52.556;13.430;2023-04-09T02:05:58;101852.03;;;9.18;100.00
27294;BME280;14785;52.556;13.430;2023-04-09T02:08:27;101849.84;;;10.00;100.00
27294;BME280;14785;52.556;13.430;2023-04-09T02:10:55;101853.97;;;9.93;100.00
27294;BME280;14785;52.556;13.430;2023-04-09T02:13:23;101847.22;;;9.67;100.00
27294;BME280;14785;52.556;13.430;2023-04-09T02:15:50;101849.88;;;9.34;100.00
27294;BME280;14785;52.556;13.430;2023-04-09T02:18:29;101852.53;;;9.34;100.00
27294;BME280;14785;52.556;13.430;2023-04-09T02:20:56;101853.44;;;8.89;100.00
27294;BME280;14785;52.556;13.430;2023-04-09T02:23:21;101853.53;;;8.53;100.00
27294;BME280;14785;52.556;13.430;2023-04-09T02:25:47;101849.38;;;9.18;100.00
27294;BME280;14785;52.556;13.430;2023-04-09T02:28:12;101848.41;;;9.30;100.00
27294;BME280;14785;52.556;13.430;2023-04-09T02:30:38;101850.91;;;8.87;100.00
27294;BME280;14785;52.556;13.430;2023-04-09T02:33:03;101848.94;;;8.55;100.00
27294;BME280;14785;52.556;13.430;2023-04-09T02:35:29;101845.38;;;8.67;100.00
27294;BME280;14785;52.556;13.430;2023-04-09T02:37:54;101847.72;;;8.82;100.00
27294;BME280;14785;52.556;13.430;2023-04-09T02:40:20;101851.81;;;9.43;100.00
27294;BME280;14785;52.556;13.430;2023-04-09T02:42:45;101854.94;;;9.48;100.00
27294;BME280;14785;52.556;13.430;2023-04-09T02:45:11;101849.38;;;9.18;100.00
27294;BME280;14785;52.556;13.430;2023-04-09T02:47:36;101848.31;;;9.31;100.00
27294;BME280;14785;52.556;13.430;2023-04-09T02:50:02;101853.50;;;9.33;100.00
27294;BME280;14785;52.556;13.430;2023-04-09T02:52:27;101847.59;;;9.51;100.00
27294;BME280;14785;52.556;13.430;2023-04-09T02:54:52;101854.72;;;9.62;100.00
27294;BME280;14785;52.556;13.430;2023-04-09T02:57:18;101861.63;;;8.97;100.00
27294;BME280;14785;52.556;13.430;2023-04-09T02:59:44;101858.28;;;8.95;100.00
27294;BME280;14785;52.556;13.430;2023-04-09T03:02:10;101852.28;;;9.26;100.00
27294;BME280;14785;52.556;13.430;2023-04-09T03:04:36;101855.84;;;8.92;100.00
27294;BME280;14785;52.556;13.430;2023-04-09T03:07:01;101846.66;;;8.85;100.00
27294;BME280;14785;52.556;13.430;2023-04-09T03:09:26;101858.34;;;8.82;100.00
27294;BME280;14785;52.556;13.430;2023-04-09T03:11:52;101845.59;;;8.87;100.00
27294;BME280;14785;52.556;13.430;2023-04-09T03:14:17;101849.06;;;8.77;100.00
27294;BME280;14785;52.556;13.430;2023-04-09T03:16:42;101848.94;;;8.55;100.00
27294;BME280;14785;52.556;13.430;2023-04-09T03:19:08;101847.72;;;8.48;100.00
27294;BME280;14785;52.556;13.430;2023-04-09T03:21:33;101853.66;;;8.28;100.00
27294;BME280;14785;52.556;13.430;2023-04-09T03:23:59;101847.66;;;8.37;100.00
27294;BME280;14785;52.556;13.430;2023-04-09T03:26:24;101842.44;;;8.48;100.00
27294;BME280;14785;52.556;13.430;2023-04-09T03:28:49;101844.75;;;8.29;100.00
27294;BME280;14785;52.556;13.430;2023-04-09T03:31:15;101845.81;;;8.50;100.00
27294;BME280;14785;52.556;13.430;2023-04-09T03:33:40;101839.59;;;8.62;100.00
27294;BME280;14785;52.556;13.430;2023-04-09T03:36:06;101841.09;;;8.53;100.00
27294;BME280;14785;52.556;13.430;2023-04-09T03:38:31;101843.28;;;8.83;100.00
27294;BME280;14785;52.556;13.430;2023-04-09T03:40:57;101835.16;;;8.39;100.00
27294;BME280;14785;52.556;13.430;2023-04-09T03:43:22;101839.38;;;8.76;100.00
27294;BME280;14785;52.556;13.430;2023-04-09T03:45:47;101835.78;;;8.77;100.00
27294;BME280;14785;52.556;13.430;2023-04-09T03:48:13;101834.75;;;8.90;100.00
27294;BME280;14785;52.556;13.430;2023-04-09T03:50:39;101838.81;;;8.83;100.00
27294;BME280;14785;52.556;13.430;2023-04-09T03:53:06;101838.41;;;9.11;100.00
27294;BME280;14785;52.556;13.430;2023-04-09T03:55:31;101835.75;;;9.11;100.00
27294;BME280;14785;52.556;13.430;2023-04-09T03:57:56;101840.72;;;9.16;100.00
27294;BME280;14785;52.556;13.430;2023-04-09T04:00:22;101836.13;;;9.29;100.00
27294;BME280;14785;52.556;13.430;2023-04-09T04:02:47;101843.34;;;9.27;100.00
27294;BME280;14785;52.556;13.430;2023-04-09T04:05:13;101839.69;;;9.06;100.00
27294;BME280;14785;52.556;13.430;2023-04-09T04:07:38;101837.41;;;8.90;100.00
27294;BME280;14785;52.556;13.430;2023-04-09T04:10:05;101837.16;;;9.04;100.00
27294;BME280;14785;52.556;13.430;2023-04-09T04:12:30;101835.81;;;8.88;100.00
27294;BME280;14785;52.556;13.430;2023-04-09T04:14:56;101841.06;;;8.66;100.00
27294;BME280;14785;52.556;13.430;2023-04-09T04:17:21;101840.88;;;8.91;100.00
27294;BME280;14785;52.556;13.430;2023-04-09T04:19:46;101841.75;;;9.13;100.00
27294;BME280;14785;52.556;13.430;2023-04-09T04:22:12;101844.72;;;8.87;100.00
27294;BME280;14785;52.556;13.430;2023-04-09T04:24:37;101839.97;;;9.14;100.00
27294;BME280;14785;52.556;13.430;2023-04-09T04:27:02;101841.91;;;9.23;100.00
27294;BME280;14785;52.556;13.430;2023-04-09T04:29:28;101847.69;;;9.17;100.00
27294;BME280;14785;52.556;13.430;2023-04-09T04:31:53;101843.56;;;9.02;100.00
27294;BME280;14785;52.556;13.430;2023-04-09T04:34:19;101851.56;;;9.24;100.00
27294;BME280;14785;52.556;13.430;2023-04-09T04:36:44;101850.31;;;9.06;100.00
27294;BME280;14785;52.556;13.430;2023-04-09T04:39:10;101847.44;;;8.98;100.00
27294;BME280;14785;52.556;13.430;2023-04-09T04:41:35;101855.84;;;9.03;100.00
27294;BME280;14785;52.556;13.430;2023-04-09T04:44:00;101857.13;;;9.32;100.00
27294;BME280;14785;52.556;13.430;2023-04-09T04:46:26;101856.28;;;9.53;100.00
27294;BME280;14785;52.556;13.430;2023-04-09T04:48:51;101860.63;;;9.65;100.00
27294;BME280;14785;52.556;13.430;2023-04-09T04:51:16;101856.41;;;9.52;100.00
27294;BME280;14785;52.556;13.430;2023-04-09T04:53:42;101859.06;;;9.63;100.00
27294;BME280;14785;52.556;13.430;2023-04-09T04:56:14;101861.72;;;9.63;100.00
27294;BME280;14785;52.556;13.430;2023-04-09T04:58:40;101865.69;;;9.91;100.00
27294;BME280;14785;52.556;13.430;2023-04-09T05:01:06;101871.34;;;9.97;100.00
27294;BME280;14785;52.556;13.430;2023-04-09T05:03:31;101863.63;;;10.05;100.00
27294;BME280;14785;52.556;13.430;2023-04-09T05:05:57;101864.75;;;10.34;100.00
27294;BME280;14785;52.556;13.430;2023-04-09T05:08:22;101859.19;;;10.37;100.00
27294;BME280;14785;52.556;13.430;2023-04-09T05:10:48;101859.75;;;10.09;100.00
27294;BME280;14785;52.556;13.430;2023-04-09T05:13:13;101866.03;;;10.19;100.00
27294;BME280;14785;52.556;13.430;2023-04-09T05:15:39;101869.88;;;10.26;100.00
27294;BME280;14785;52.556;13.430;2023-04-09T05:18:05;101865.78;;;10.00;100.00
27294;BME280;14785;52.556;13.430;2023-04-09T05:20:32;101863.88;;;10.13;100.00
27294;BME280;14785;52.556;13.430;2023-04-09T05:22:57;101865.69;;;10.13;100.00
27294;BME280;14785;52.556;13.430;2023-04-09T05:25:23;101869.91;;;10.15;100.00
27294;BME280;14785;52.556;13.430;2023-04-09T05:27:48;101873.22;;;10.39;100.00
27294;BME280;14785;52.556;13.430;2023-04-09T05:30:13;101873.94;;;10.41;100.00
27294;BME280;14785;52.556;13.430;2023-04-09T05:32:39;101880.22;;;10.40;100.00
27294;BME280;14785;52.556;13.430;2023-04-09T05:35:05;101873.13;;;10.61;100.00
27294;BME280;14785;52.556;13.430;2023-04-09T05:37:31;101871.63;;;9.83;100.00
27294;BME280;14785;52.556;13.430;2023-04-09T05:39:56;101879.59;;;10.16;100.00
27294;BME280;14785;52.556;13.430;2023-04-09T05:42:21;101876.44;;;10.11;100.00
27294;BME280;14785;52.556;13.430;2023-04-09T05:44:47;101881.31;;;10.38;100.00
27294;BME280;14785;52.556;13.430;2023-04-09T05:47:12;101882.94;;;10.29;100.00
27294;BME280;14785;52.556;13.430;2023-04-09T05:49:37;101885.63;;;9.96;100.00
27294;BME280;14785;52.556;13.430;2023-04-09T05:52:03;101891.84;;;9.18;100.00
27294;BME280;14785;52.556;13.430;2023-04-09T05:54:29;101889.34;;;8.58;100.00
27294;BME280;14785;52.556;13.430;2023-04-09T05:56:55;101874.41;;;8.57;100.00
27294;BME280;14785;52.556;13.430;2023-04-09T05:59:20;101879.50;;;8.95;100.00
27294;BME280;14785;52.556;13.430;2023-04-09T06:01:46;101887.13;;;7.93;100.00
27294;BME280;14785;52.556;13.430;2023-04-09T06:04:12;101884.97;;;7.49;100.00
27294;BME280;14785;52.556;13.430;2023-04-09T06:06:38;101887.81;;;7.33;100.00
27294;BME280;14785;52.556;13.430;2023-04-09T06:09:04;101888.00;;;7.80;100.00
27294;BME280;14785;52.556;13.430;2023-04-09T06:11:30;101877.47;;;8.40;100.00
27294;BME280;14785;52.556;13.430;2023-04-09T06:13:56;101887.50;;;8.12;100.00
27294;BME280;14785;52.556;13.430;2023-04-09T06:16:21;101888.28;;;8.37;100.00
27294;BME280;14785;52.556;13.430;2023-04-09T06:18:47;101898.78;;;6.77;100.00
27294;BME280;14785;52.556;13.430;2023-04-09T06:21:15;101903.72;;;6.43;100.00
27294;BME280;14785;52.556;13.430;2023-04-09T06:23:41;101906.34;;;6.69;100.00
27294;BME280;14785;52.556;13.430;2023-04-09T06:26:07;101909.31;;;7.66;100.00
27294;BME280;14785;52.556;13.430;2023-04-09T06:28:32;101901.88;;;8.56;100.00
27294;BME280;14785;52.556;13.430;2023-04-09T06:30:58;101898.56;;;9.00;100.00
27294;BME280;14785;52.556;13.430;2023-04-09T06:33:24;101893.56;;;8.84;100.00
27294;BME280;14785;52.556;13.430;2023-04-09T06:35:49;101890.41;;;8.32;100.00
27294;BME280;14785;52.556;13.430;2023-04-09T06:38:16;101896.94;;;8.86;100.00
27294;BME280;14785;52.556;13.430;2023-04-09T06:40:42;101903.25;;;8.62;100.00
27294;BME280;14785;52.556;13.430;2023-04-09T06:43:07;101903.91;;;7.80;100.00
27294;BME280;14785;52.556;13.430;2023-04-09T06:45:34;101906.97;;;8.36;100.00
27294;BME280;14785;52.556;13.430;2023-04-09T06:48:03;101901.88;;;8.33;100.00
27294;BME280;14785;52.556;13.430;2023-04-09T06:50:29;101903.41;;;9.06;100.00
27294;BME280;14785;52.556;13.430;2023-04-09T06:52:54;101901.59;;;9.74;100.00
27294;BME280;14785;52.556;13.430;2023-04-09T06:55:21;101899.34;;;9.24;100.00
27294;BME280;14785;52.556;13.430;2023-04-09T06:57:46;101894.56;;;9.51;100.00
27294;BME280;14785;52.556;13.430;2023-04-09T07:00:12;101904.69;;;9.35;100.00
27294;BME280;14785;52.556;13.430;2023-04-09T07:02:38;101910.38;;;9.52;100.00
27294;BME280;14785;52.556;13.430;2023-04-09T07:05:04;101909.06;;;9.69;100.00
27294;BME280;14785;52.556;13.430;2023-04-09T07:07:29;101910.75;;;9.92;100.00
27294;BME280;14785;52.556;13.430;2023-04-09T07:09:56;101916.19;;;9.91;100.00
27294;BME280;14785;52.556;13.430;2023-04-09T07:12:39;101915.34;;;10.12;100.00
27294;BME280;14785;52.556;13.430;2023-04-09T07:15:05;101913.66;;;10.22;100.00
27294;BME280;14785;52.556;13.430;2023-04-09T07:17:34;101923.25;;;10.45;100.00
27294;BME280;14785;52.556;13.430;2023-04-09T07:20:00;101916.91;;;10.68;100.00
27294;BME280;14785;52.556;13.430;2023-04-09T07:22:26;101921.41;;;10.88;100.00
27294;BME280;14785;52.556;13.430;2023-04-09T07:24:52;101922.38;;;10.56;100.00
27294;BME280;14785;52.556;13.430;2023-04-09T07:27:19;101921.88;;;10.62;100.00
27294;BME280;14785;52.556;13.430;2023-04-09T07:29:47;101920.28;;;10.70;100.00
27294;BME280;14785;52.556;13.430;2023-04-09T07:32:12;101914.03;;;10.60;100.00
27294;BME280;14785;52.556;13.430;2023-04-09T07:34:37;101921.97;;;10.71;100.00
27294;BME280;14785;52.556;13.430;2023-04-09T07:37:03;101913.47;;;11.29;100.00
27294;BME280;14785;52.556;13.430;2023-04-09T07:39:29;101909.94;;;11.29;100.00
27294;BME280;14785;52.556;13.430;2023-04-09T07:41:54;101917.63;;;11.22;100.00
27294;BME280;14785;52.556;13.430;2023-04-09T07:44:21;101914.25;;;11.20;100.00
27294;BME280;14785;52.556;13.430;2023-04-09T07:46:47;101917.94;;;11.29;100.00
27294;BME280;14785;52.556;13.430;2023-04-09T07:49:13;101908.34;;;10.85;100.00
27294;BME280;14785;52.556;13.430;2023-04-09T07:51:38;101916.16;;;10.98;100.00
27294;BME280;14785;52.556;13.430;2023-04-09T07:54:04;101915.91;;;11.21;100.00
27294;BME280;14785;52.556;13.430;2023-04-09T07:56:29;101915.06;;;11.41;100.00
27294;BME280;14785;52.556;13.430;2023-04-09T07:58:55;101923.16;;;10.36;100.00
27294;BME280;14785;52.556;13.430;2023-04-09T08:01:20;101924.75;;;8.34;100.00
27294;BME280;14785;52.556;13.430;2023-04-09T08:03:49;101925.25;;;9.66;100.00
27294;BME280;14785;52.556;13.430;2023-04-09T08:06:15;101929.38;;;10.25;100.00
27294;BME280;14785;52.556;13.430;2023-04-09T08:08:41;101932.81;;;10.79;100.00
27294;BME280;14785;52.556;13.430;2023-04-09T08:11:07;101938.78;;;9.96;100.00
27294;BME280;14785;52.556;13.430;2023-04-09T08:13:33;101927.91;;;9.77;100.00
27294;BME280;14785;52.556;13.430;2023-04-09T08:16:02;101939.41;;;9.21;100.00
27294;BME280;14785;52.556;13.430;2023-04-09T08:18:29;101942.75;;;9.57;100.00
27294;BME280;14785;52.556;13.430;2023-04-09T08:20:55;101942.28;;;10.19;100.00
27294;BME280;14785;52.556;13.430;2023-04-09T08:23:20;101946.53;;;9.31;100.00
27294;BME280;14785;52.556;13.430;2023-04-09T08:25:46;101945.94;;;8.93;100.00
27294;BME280;14785;52.556;13.430;2023-04-09T08:28:11;101949.84;;;8.53;100.00
27294;BME280;14785;52.556;13.430;2023-04-09T08:30:37;101949.78;;;9.24;100.00
27294;BME280;14785;52.556;13.430;2023-04-09T08:33:02;101949.09;;;8.98;100.00
27294;BME280;14785;52.556;13.430;2023-04-09T08:35:31;101960.47;;;8.77;100.00
27294;BME280;14785;52.556;13.430;2023-04-09T08:37:57;101949.78;;;9.13;100.00
27294;BME280;14785;52.556;13.430;2023-04-09T08:40:23;101954.94;;;8.08;100.00
27294;BME280;14785;52.556;13.430;2023-04-09T08:42:53;101949.31;;;9.30;100.00
27294;BME280;14785;52.556;13.430;2023-04-09T08:45:20;101952.59;;;9.33;100.00
27294;BME280;14785;52.556;13.430;2023-04-09T08:47:47;101952.69;;;8.27;100.00
27294;BME280;14785;52.556;13.430;2023-04-09T08:50:13;101951.09;;;9.18;100.00
27294;BME280;14785;52.556;13.430;2023-04-09T08:52:39;101935.16;;;9.75;100.00
27294;BME280;14785;52.556;13.430;2023-04-09T08:55:06;101943.09;;;9.64;100.00
27294;BME280;14785;52.556;13.430;2023-04-09T08:57:37;101945.44;;;10.66;100.00
27294;BME280;14785;52.556;13.430;2023-04-09T09:00:03;101933.78;;;11.10;100.00
27294;BME280;14785;52.556;13.430;2023-04-09T09:02:29;101937.34;;;10.99;100.00
27294;BME280;14785;52.556;13.430;2023-04-09T09:04:56;101946.88;;;10.70;100.00
27294;BME280;14785;52.556;13.430;2023-04-09T09:07:26;101944.81;;;10.09;100.00
27294;BME280;14785;52.556;13.430;2023-04-09T09:09:56;101942.66;;;10.14;100.00
27294;BME280;14785;52.556;13.430;2023-04-09T09:12:39;101945.53;;;10.44;100.00
27294;BME280;14785;52.556;13.430;2023-04-09T09:15:24;101936.00;;;10.20;100.00
27294;BME280;14785;52.556;13.430;2023-04-09T09:17:59;101930.09;;;11.01;100.00
27294;BME280;14785;52.556;13.430;2023-04-09T09:20:25;101933.72;;;11.41;100.00
27294;BME280;14785;52.556;13.430;2023-04-09T09:22:52;101934.56;;;11.42;100.00
27294;BME280;14785;52.556;13.430;2023-04-09T09:25:19;101934.59;;;11.93;100.00
27294;BME280;14785;52.556;13.430;2023-04-09T09:27:50;101929.59;;;12.09;100.00
27294;BME280;14785;52.556;13.430;2023-04-09T09:30:25;101925.44;;;12.35;100.00
27294;BME280;14785;52.556;13.430;2023-04-09T09:32:52;101937.63;;;10.85;100.00
27294;BME280;14785;52.556;13.430;2023-04-09T09:35:19;101946.88;;;10.70;100.00
27294;BME280;14785;52.556;13.430;2023-04-09T09:37:44;101941.38;;;9.41;100.00
27294;BME280;14785;52.556;13.430;2023-04-09T09:40:25;101946.41;;;9.22;100.00
27294;BME280;14785;52.556;13.430;2023-04-09T09:42:54;101938.22;;;10.57;100.00
27294;BME280;14785;52.556;13.430;2023-04-09T09:45:21;101932.94;;;11.50;100.00
27294;BME280;14785;52.556;13.430;2023-04-09T09:47:47;101924.53;;;11.76;100.00
27294;BME280;14785;52.556;13.430;2023-04-09T09:50:13;101932.06;;;12.01;100.00
27294;BME280;14785;52.556;13.430;2023-04-09T09:52:40;101928.28;;;12.62;100.00
27294;BME280;14785;52.556;13.430;2023-04-09T09:55:09;101926.06;;;12.67;100.00
27294;BME280;14785;52.556;13.430;2023-04-09T09:57:43;101927.72;;;12.49;100.00
27294;BME280;14785;52.556;13.430;2023-04-09T10:00:11;101925.22;;;12.76;100.00
27294;BME280;14785;52.556;13.430;2023-04-09T10:03:31;101919.97;;;12.36;100.00
27294;BME280;14785;52.556;13.430;2023-04-09T10:05:39;101930.75;;;10.83;100.00
27294;BME280;14785;52.556;13.430;2023-04-09T10:08:06;101920.09;;;11.14;100.00
27294;BME280;14785;52.556;13.430;2023-04-09T10:10:32;101916.53;;;12.06;100.00
27294;BME280;14785;52.556;13.430;2023-04-09T10:12:58;101914.44;;;12.09;100.00
27294;BME280;14785;52.556;13.430;2023-04-09T10:15:26;101915.66;;;11.96;100.00
27294;BME280;14785;52.556;13.430;2023-04-09T10:17:53;101923.25;;;10.56;100.00
27294;BME280;14785;52.556;13.430;2023-04-09T10:20:40;101925.91;;;10.45;100.00
27294;BME280;14785;52.556;13.430;2023-04-09T10:23:10;101916.47;;;11.87;100.00
27294;BME280;14785;52.556;13.430;2023-04-09T10:25:40;101916.16;;;10.98;100.00
27294;BME280;14785;52.556;13.430;2023-04-09T10:28:15;101920.19;;;10.07;100.00
27294;BME280;14785;52.556;13.430;2023-04-09T10:30:41;101923.56;;;10.20;100.00
27294;BME280;14785;52.556;13.430;2023-04-09T10:33:12;101922.53;;;11.06;100.00
27294;BME280;14785;52.556;13.430;2023-04-09T10:35:38;101919.31;;;11.23;100.00
27294;BME280;14785;52.556;13.430;2023-04-09T10:38:07;101915.25;;;12.10;100.00
27294;BME280;14785;52.556;13.430;2023-04-09T10:40:33;101920.16;;;12.54;100.00
27294;BME280;14785;52.556;13.430;2023-04-09T10:42:58;101919.59;;;12.98;100.00
27294;BME280;14785;52.556;13.430;2023-04-09T10:45:25;101922.53;;;11.47;100.00
27294;BME280;14785;52.556;13.430;2023-04-09T10:48:03;101929.75;;;10.52;100.00
27294;BME280;14785;52.556;13.430;2023-04-09T10:50:31;101924.25;;;12.09;100.00
27294;BME280;14785;52.556;13.430;2023-04-09T10:52:57;101907.75;;;13.48;100.00
27294;BME280;14785;52.556;13.430;2023-04-09T10:55:35;101917.44;;;14.49;100.00
27294;BME280;14785;52.556;13.430;2023-04-09T10:58:08;101917.75;;;14.46;100.00
27294;BME280;14785;52.556;13.430;2023-04-09T11:00:42;101914.59;;;13.97;100.00
27294;BME280;14785;52.556;13.430;2023-04-09T11:03:26;101911.97;;;13.51;100.00
27294;BME280;14785;52.556;13.430;2023-04-09T11:06:04;101903.81;;;12.38;100.00
27294;BME280;14785;52.556;13.430;2023-04-09T11:08:33;101901.19;;;12.95;100.00
27294;BME280;14785;52.556;13.430;2023-04-09T11:10:59;101910.19;;;13.78;100.00
27294;BME280;14785;52.556;13.430;2023-04-09T11:13:25;101906.09;;;14.11;100.00
27294;BME280;14785;52.556;13.430;2023-04-09T11:15:53;101911.88;;;14.78;100.00
27294;BME280;14785;52.556;13.430;2023-04-09T11:18:21;101910.31;;;15.46;100.00
27294;BME280;14785;52.556;13.430;2023-04-09T11:20:47;101908.53;;;15.88;100.00
27294;BME280;14785;52.556;13.430;2023-04-09T11:23:14;101911.44;;;15.69;100.00
27294;BME280;14785;52.556;13.430;2023-04-09T11:25:39;101912.75;;;16.40;100.00
27294;BME280;14785;52.556;13.430;2023-04-09T11:28:05;101912.06;;;16.38;100.00
27294;BME280;14785;52.556;13.430;2023-04-09T11:30:33;101913.59;;;15.91;100.00
27294;BME280;14785;52.556;13.430;2023-04-09T11:32:58;101916.78;;;15.69;100.00
27294;BME280;14785;52.556;13.430;2023-04-09T11:35:24;101909.16;;;15.30;100.00
27294;BME280;14785;52.556;13.430;2023-04-09T11:37:50;101900.44;;;17.11;100.00
27294;BME280;14785;52.556;13.430;2023-04-09T11:40:26;101898.59;;;16.87;100.00
27294;BME280;14785;52.556;13.430;2023-04-09T11:42:56;101894.22;;;17.27;100.00
27294;BME280;14785;52.556;13.430;2023-04-09T11:45:24;101900.41;;;16.55;100.00
27294;BME280;14785;52.556;13.430;2023-04-09T11:47:51;101888.00;;;17.58;100.00
27294;BME280;14785;52.556;13.430;2023-04-09T11:50:18;101890.38;;;15.48;100.00
27294;BME280;14785;52.556;13.430;2023-04-09T11:52:44;101886.75;;;15.91;100.00
27294;BME280;14785;52.556;13.430;2023-04-09T11:55:10;101884.34;;;16.79;100.00
27294;BME280;14785;52.556;13.430;2023-04-09T11:57:44;101886.69;;;17.06;100.00
27294;BME280;14785;52.556;13.430;2023-04-09T12:00:14;101880.91;;;17.57;100.00
27294;BME280;14785;52.556;13.430;2023-04-09T12:02:42;101885.91;;;18.76;100.00
27294;BME280;14785;52.556;13.430;2023-04-09T12:05:20;101889.00;;;18.65;100.00
27294;BME280;14785;52.556;13.430;2023-04-09T12:07:45;101893.38;;;17.34;100.00
27294;BME280;14785;52.556;13.430;2023-04-09T12:10:11;101884.63;;;17.56;100.00
27294;BME280;14785;52.556;13.430;2023-04-09T12:12:46;101884.69;;;16.26;100.00
27294;BME280;14785;52.556;13.430;2023-04-09T12:15:22;101888.06;;;15.10;100.00
27294;BME280;14785;52.556;13.430;2023-04-09T12:17:53;101879.69;;;15.90;100.00
27294;BME280;14785;52.556;13.430;2023-04-09T12:20:33;101879.16;;;17.88;100.00
27294;BME280;14785;52.556;13.430;2023-04-09T12:23:02;101879.06;;;18.12;100.00
27294;BME280;14785;52.556;13.430;2023-04-09T12:25:29;101875.44;;;19.41;100.00
27294;BME280;14785;52.556;13.430;2023-04-09T12:27:55;101882.25;;;19.95;100.00
27294;BME280;14785;52.556;13.430;2023-04-09T12:30:22;101878.38;;;20.33;100.00
27294;BME280;14785;52.556;13.430;2023-04-09T12:32:51;101882.56;;;20.71;100.00
27294;BME280;14785;52.556;13.430;2023-04-09T12:35:16;101879.50;;;20.95;100.00
27294;BME280;14785;52.556;13.430;2023-04-09T12:37:42;101879.44;;;21.37;100.00
27294;BME280;14785;52.556;13.430;2023-04-09T12:40:08;101877.53;;;20.89;100.00
27294;BME280;14785;52.556;13.430;2023-04-09T12:42:34;101871.28;;;21.99;100.00
27294;BME280;14785;52.556;13.430;2023-04-09T12:45:00;101870.34;;;22.26;100.00
27294;BME280;14785;52.556;13.430;2023-04-09T12:47:25;101869.84;;;22.09;100.00